Terminal Aerodrome Forecast
Issued by NWS Blacksburg, VA

Home | Current Version | Previous Version | Text Only | Print | Product List | Glossary On
Versions: 1 2 3 4 5 6 7 8 9 10 11 12 13
000
FTUS41 KRNK 191120
TAFLYH
TAF
KLYH 191120Z 1912/2012 VRB03KT P6SM -RA OVC015
      TEMPO 1912/1914 5SM -RA BR OVC009
     FM191400 VRB03KT 4SM BR OVC008
     FM192100 20005KT P6SM BKN040
     FM192300 19005KT P6SM BKN015
     FM200500 20004KT 2SM BR BKN015=

USA.gov is the U.S. government's official web portal to all federal, state and local government web resources and services.